sensor_id;sensor_type;location;lat;lon;timestamp;pressure;altitude;pressure_sealevel;temperature;humidity
9187;BME280;7273;48.902;9.410;2023-04-23T00:00:32;97360.31;;;14.73;59.37
9187;BME280;7273;48.902;9.410;2023-04-23T00:03:02;97367.38;;;14.74;59.69
9187;BME280;7273;48.902;9.410;2023-04-23T00:05:29;97363.84;;;14.74;59.32
9187;BME280;7273;48.902;9.410;2023-04-23T00:07:59;97360.31;;;14.73;59.53
9187;BME280;7273;48.902;9.410;2023-04-23T00:10:25;97360.31;;;14.73;59.11
9187;BME280;7273;48.902;9.410;2023-04-23T00:12:51;97360.31;;;14.73;58.95
9187;BME280;7273;48.902;9.410;2023-04-23T00:15:17;97351.97;;;14.70;59.19
9187;BME280;7273;48.902;9.410;2023-04-23T00:17:45;97358.72;;;14.72;59.25
9187;BME280;7273;48.902;9.410;2023-04-23T00:20:11;97353.91;;;14.69;59.40
9187;BME280;7273;48.902;9.410;2023-04-23T00:22:37;97364.00;;;14.69;59.31
9187;BME280;7273;48.902;9.410;2023-04-23T00:25:03;97367.53;;;14.69;59.36
9187;BME280;7273;48.902;9.410;2023-04-23T00:27:29;97373.28;;;14.68;59.24
9187;BME280;7273;48.902;9.410;2023-04-23T00:29:54;97369.28;;;14.65;59.62
9187;BME280;7273;48.902;9.410;2023-04-23T00:32:20;97367.34;;;14.66;59.64
9187;BME280;7273;48.902;9.410;2023-04-23T00:34:47;97364.63;;;14.66;59.60
9187;BME280;7273;48.902;9.410;2023-04-23T00:37:16;97368.47;;;14.65;59.59
9187;BME280;7273;48.902;9.410;2023-04-23T00:39:42;97370.41;;;14.64;59.67
9187;BME280;7273;48.902;9.410;2023-04-23T00:42:08;97380.47;;;14.64;59.90
9187;BME280;7273;48.902;9.410;2023-04-23T00:44:39;97378.06;;;14.62;59.76
9187;BME280;7273;48.902;9.410;2023-04-23T00:47:06;97373.78;;;14.61;59.45
9187;BME280;7273;48.902;9.410;2023-04-23T00:49:35;97374.88;;;14.60;59.61
9187;BME280;7273;48.902;9.410;2023-04-23T00:52:02;97375.50;;;14.57;59.36
9187;BME280;7273;48.902;9.410;2023-04-23T00:54:28;97378.88;;;14.54;59.67
9187;BME280;7273;48.902;9.410;2023-04-23T00:56:54;97379.03;;;14.49;59.84
9187;BME280;7273;48.902;9.410;2023-04-23T00:59:26;97376.63;;;14.48;59.77
9187;BME280;7273;48.902;9.410;2023-04-23T01:01:52;97374.53;;;14.45;59.86
9187;BME280;7273;48.902;9.410;2023-04-23T01:04:19;97381.72;;;14.41;59.49
9187;BME280;7273;48.902;9.410;2023-04-23T01:06:46;97384.28;;;14.37;60.11
9187;BME280;7273;48.902;9.410;2023-04-23T01:09:12;97392.59;;;14.32;59.98
9187;BME280;7273;48.902;9.410;2023-04-23T01:11:40;97393.53;;;14.28;59.93
9187;BME280;7273;48.902;9.410;2023-04-23T01:14:07;97397.81;;;14.20;59.56
9187;BME280;7273;48.902;9.410;2023-04-23T01:16:34;97403.72;;;14.14;60.29
9187;BME280;7273;48.902;9.410;2023-04-23T01:19:00;97399.84;;;14.06;60.17
9187;BME280;7273;48.902;9.410;2023-04-23T01:21:27;97403.50;;;14.02;60.78
9187;BME280;7273;48.902;9.410;2023-04-23T01:23:54;97405.09;;;13.94;60.97
9187;BME280;7273;48.902;9.410;2023-04-23T01:26:21;97409.03;;;13.88;60.57
9187;BME280;7273;48.902;9.410;2023-04-23T01:28:48;97397.84;;;13.81;61.13
9187;BME280;7273;48.902;9.410;2023-04-23T01:31:14;97400.88;;;13.80;61.57
9187;BME280;7273;48.902;9.410;2023-04-23T01:33:41;97402.28;;;13.77;61.35
9187;BME280;7273;48.902;9.410;2023-04-23T01:36:07;97396.16;;;13.72;61.43
9187;BME280;7273;48.902;9.410;2023-04-23T01:38:34;97409.28;;;13.70;61.63
9187;BME280;7273;48.902;9.410;2023-04-23T01:41:00;97418.06;;;13.67;62.39
9187;BME280;7273;48.902;9.410;2023-04-23T01:43:26;97419.97;;;13.66;62.59
9187;BME280;7273;48.902;9.410;2023-04-23T01:45:51;97425.09;;;13.68;62.58
9187;BME280;7273;48.902;9.410;2023-04-23T01:48:17;97426.81;;;13.64;62.66
9187;BME280;7273;48.902;9.410;2023-04-23T01:50:43;97431.47;;;13.63;62.59
9187;BME280;7273;48.902;9.410;2023-04-23T01:53:09;97431.78;;;13.62;62.69
9187;BME280;7273;48.902;9.410;2023-04-23T01:55:37;97431.59;;;13.58;63.06
9187;BME280;7273;48.902;9.410;2023-04-23T01:58:03;97431.41;;;13.55;63.29
9187;BME280;7273;48.902;9.410;2023-04-23T02:00:28;97429.97;;;13.57;63.38
9187;BME280;7273;48.902;9.410;2023-04-23T02:02:54;97435.72;;;13.56;63.56
9187;BME280;7273;48.902;9.410;2023-04-23T02:05:20;97437.94;;;13.53;63.50
9187;BME280;7273;48.902;9.410;2023-04-23T02:07:48;97441.78;;;13.52;63.59
9187;BME280;7273;48.902;9.410;2023-04-23T02:10:14;97440.19;;;13.52;63.42
9187;BME280;7273;48.902;9.410;2023-04-23T02:12:40;97445.63;;;13.52;63.90
9187;BME280;7273;48.902;9.410;2023-04-23T02:15:07;97442.91;;;13.52;63.58
9187;BME280;7273;48.902;9.410;2023-04-23T02:17:33;97443.38;;;13.53;63.48
9187;BME280;7273;48.902;9.410;2023-04-23T02:20:00;97440.00;;;13.48;63.55
9187;BME280;7273;48.902;9.410;2023-04-23T02:22:26;97444.00;;;13.50;63.95
9187;BME280;7273;48.902;9.410;2023-04-23T02:24:53;97446.53;;;13.47;63.79
9187;BME280;7273;48.902;9.410;2023-04-23T02:27:19;97444.94;;;13.46;64.19
9187;BME280;7273;48.902;9.410;2023-04-23T02:29:45;97448.47;;;13.46;64.26
9187;BME280;7273;48.902;9.410;2023-04-23T02:32:10;97459.84;;;13.48;64.24
9187;BME280;7273;48.902;9.410;2023-04-23T02:34:36;97457.13;;;13.48;64.01
9187;BME280;7273;48.902;9.410;2023-04-23T02:37:02;97452.47;;;13.49;64.21
9187;BME280;7273;48.902;9.410;2023-04-23T02:39:31;97459.34;;;13.46;64.07
9187;BME280;7273;48.902;9.410;2023-04-23T02:41:56;97460.28;;;13.42;64.25
9187;BME280;7273;48.902;9.410;2023-04-23T02:44:25;97455.63;;;13.42;64.29
9187;BME280;7273;48.902;9.410;2023-04-23T02:46:51;97457.25;;;13.43;69.42
9187;BME280;7273;48.902;9.410;2023-04-23T02:49:17;97459.09;;;13.34;65.13
9187;BME280;7273;48.902;9.410;2023-04-23T02:51:44;97449.97;;;13.30;64.71
9187;BME280;7273;48.902;9.410;2023-04-23T02:54:10;97449.66;;;13.32;64.77
9187;BME280;7273;48.902;9.410;2023-04-23T02:56:36;97443.72;;;13.30;65.06
9187;BME280;7273;48.902;9.410;2023-04-23T02:59:01;97440.81;;;13.26;64.77
9187;BME280;7273;48.902;9.410;2023-04-23T03:01:26;97444.16;;;13.23;65.05
9187;BME280;7273;48.902;9.410;2023-04-23T03:03:52;97434.69;;;13.21;65.17
9187;BME280;7273;48.902;9.410;2023-04-23T03:06:18;97435.81;;;13.20;65.34
9187;BME280;7273;48.902;9.410;2023-04-23T03:08:43;97431.50;;;13.19;65.48
9187;BME280;7273;48.902;9.410;2023-04-23T03:11:08;97430.81;;;13.13;65.34
9187;BME280;7273;48.902;9.410;2023-04-23T03:13:34;97440.41;;;13.11;65.52
9187;BME280;7273;48.902;9.410;2023-04-23T03:15:59;97450.13;;;13.12;65.64
9187;BME280;7273;48.902;9.410;2023-04-23T03:18:25;97453.34;;;13.00;65.92
9187;BME280;7273;48.902;9.410;2023-04-23T03:20:50;97455.25;;;13.00;65.71
9187;BME280;7273;48.902;9.410;2023-04-23T03:23:16;97454.69;;;13.03;65.95
9187;BME280;7273;48.902;9.410;2023-04-23T03:25:41;97449.63;;;12.96;65.63
9187;BME280;7273;48.902;9.410;2023-04-23T03:28:06;97446.66;;;12.98;65.92
9187;BME280;7273;48.902;9.410;2023-04-23T03:30:32;97442.13;;;12.93;65.89
9187;BME280;7273;48.902;9.410;2023-04-23T03:32:58;97441.75;;;12.86;66.09
9187;BME280;7273;48.902;9.410;2023-04-23T03:35:24;97442.53;;;12.87;66.24
9187;BME280;7273;48.902;9.410;2023-04-23T03:37:50;97431.38;;;12.88;66.09
9187;BME280;7273;48.902;9.410;2023-04-23T03:40:16;97429.38;;;12.80;66.19
9187;BME280;7273;48.902;9.410;2023-04-23T03:42:42;97425.38;;;12.78;66.59
9187;BME280;7273;48.902;9.410;2023-04-23T03:45:08;97423.09;;;12.71;66.67
9187;BME280;7273;48.902;9.410;2023-04-23T03:47:33;97411.44;;;12.71;66.82
9187;BME280;7273;48.902;9.410;2023-04-23T03:49:58;97417.38;;;12.73;66.86
9187;BME280;7273;48.902;9.410;2023-04-23T03:52:24;97413.34;;;12.70;66.75
9187;BME280;7273;48.902;9.410;2023-04-23T03:54:49;97422.28;;;12.71;66.69
9187;BME280;7273;48.902;9.410;2023-04-23T03:57:15;97430.94;;;12.73;66.71
9187;BME280;7273;48.902;9.410;2023-04-23T03:59:41;97428.72;;;12.75;66.65
9187;BME280;7273;48.902;9.410;2023-04-23T04:02:06;97437.94;;;12.74;66.91
9187;BME280;7273;48.902;9.410;2023-04-23T04:04:32;97436.66;;;12.71;66.90
9187;BME280;7273;48.902;9.410;2023-04-23T04:06:58;97425.84;;;12.58;67.09
9187;BME280;7273;48.902;9.410;2023-04-23T04:09:26;97429.56;;;12.48;67.38
9187;BME280;7273;48.902;9.410;2023-04-23T04:11:52;97430.19;;;12.45;67.36
9187;BME280;7273;48.902;9.410;2023-04-23T04:14:20;97433.56;;;12.51;67.27
9187;BME280;7273;48.902;9.410;2023-04-23T04:16:46;97447.34;;;12.54;67.17
9187;BME280;7273;48.902;9.410;2023-04-23T04:19:11;97457.25;;;12.59;67.47
9187;BME280;7273;48.902;9.410;2023-04-23T04:21:37;97460.47;;;12.61;67.13
9187;BME280;7273;48.902;9.410;2023-04-23T04:24:02;97455.06;;;12.61;67.36
9187;BME280;7273;48.902;9.410;2023-04-23T04:26:32;97449.25;;;12.54;67.50
9187;BME280;7273;48.902;9.410;2023-04-23T04:28:58;97450.66;;;12.51;67.44
9187;BME280;7273;48.902;9.410;2023-04-23T04:31:25;97442.81;;;12.50;67.46
9187;BME280;7273;48.902;9.410;2023-04-23T04:33:54;97440.00;;;12.55;67.35
9187;BME280;7273;48.902;9.410;2023-04-23T04:36:20;97439.19;;;12.54;67.41
9187;BME280;7273;48.902;9.410;2023-04-23T04:38:47;97447.63;;;12.53;67.67
9187;BME280;7273;48.902;9.410;2023-04-23T04:41:13;97448.16;;;12.55;67.40
9187;BME280;7273;48.902;9.410;2023-04-23T04:43:39;97451.84;;;12.59;67.31
9187;BME280;7273;48.902;9.410;2023-04-23T04:46:05;97451.25;;;12.62;67.21
9187;BME280;7273;48.902;9.410;2023-04-23T04:48:30;97455.56;;;12.63;67.05
9187;BME280;7273;48.902;9.410;2023-04-23T04:50:56;97459.69;;;12.60;66.97
9187;BME280;7273;48.902;9.410;2023-04-23T04:53:21;97452.34;;;12.61;67.36
9187;BME280;7273;48.902;9.410;2023-04-23T04:55:47;97465.91;;;12.61;67.04
9187;BME280;7273;48.902;9.410;2023-04-23T04:58:13;97456.47;;;12.58;67.39
9187;BME280;7273;48.902;9.410;2023-04-23T05:00:38;97456.47;;;12.58;67.49
9187;BME280;7273;48.902;9.410;2023-04-23T05:03:04;97459.19;;;12.58;67.20
9187;BME280;7273;48.902;9.410;2023-04-23T05:05:31;97468.13;;;12.59;67.42
9187;BME280;7273;48.902;9.410;2023-04-23T05:07:57;97458.69;;;12.56;67.40
9187;BME280;7273;48.902;9.410;2023-04-23T05:10:26;97461.72;;;12.55;67.23
9187;BME280;7273;48.902;9.410;2023-04-23T05:12:51;97457.88;;;12.56;67.18
9187;BME280;7273;48.902;9.410;2023-04-23T05:15:17;97452.75;;;12.54;67.09
9187;BME280;7273;48.902;9.410;2023-04-23T05:17:42;97456.91;;;12.52;67.21
9187;BME280;7273;48.902;9.410;2023-04-23T05:20:09;97456.19;;;12.46;67.49
9187;BME280;7273;48.902;9.410;2023-04-23T05:22:41;97459.59;;;12.52;67.67
9187;BME280;7273;48.902;9.410;2023-04-23T05:25:07;97457.78;;;12.47;67.71
9187;BME280;7273;48.902;9.410;2023-04-23T05:27:34;97454.97;;;12.52;67.69
9187;BME280;7273;48.902;9.410;2023-04-23T05:30:01;97463.50;;;12.59;67.53
9187;BME280;7273;48.902;9.410;2023-04-23T05:32:26;97463.91;;;12.66;67.27
9187;BME280;7273;48.902;9.410;2023-04-23T05:34:52;97459.75;;;12.69;67.52
9187;BME280;7273;48.902;9.410;2023-04-23T05:37:17;97451.28;;;12.84;67.46
9187;BME280;7273;48.902;9.410;2023-04-23T05:39:43;97465.25;;;13.04;67.29
9187;BME280;7273;48.902;9.410;2023-04-23T05:42:08;97460.25;;;13.20;67.51
9187;BME280;7273;48.902;9.410;2023-04-23T05:44:33;97454.66;;;13.38;67.17
9187;BME280;7273;48.902;9.410;2023-04-23T05:46:59;97457.03;;;13.62;67.08
9187;BME280;7273;48.902;9.410;2023-04-23T05:49:25;97458.34;;;13.65;66.79
9187;BME280;7273;48.902;9.410;2023-04-23T05:51:51;97464.72;;;13.60;67.08
9187;BME280;7273;48.902;9.410;2023-04-23T05:54:16;97462.81;;;13.69;67.00
9187;BME280;7273;48.902;9.410;2023-04-23T05:56:42;97466.38;;;13.70;66.44
9187;BME280;7273;48.902;9.410;2023-04-23T05:59:07;97470.16;;;13.69;66.30
9187;BME280;7273;48.902;9.410;2023-04-23T06:01:32;97464.28;;;13.67;66.57
9187;BME280;7273;48.902;9.410;2023-04-23T06:03:58;97474.63;;;13.65;66.71
9187;BME280;7273;48.902;9.410;2023-04-23T06:06:24;97472.22;;;13.63;66.85
9187;BME280;7273;48.902;9.410;2023-04-23T06:08:49;97477.78;;;13.58;66.51
9187;BME280;7273;48.902;9.410;2023-04-23T06:11:15;97476.47;;;13.56;66.58
9187;BME280;7273;48.902;9.410;2023-04-23T06:13:41;97469.66;;;13.58;66.51
9187;BME280;7273;48.902;9.410;2023-04-23T06:16:07;97477.28;;;13.56;67.05
9187;BME280;7273;48.902;9.410;2023-04-23T06:18:33;97472.16;;;13.55;66.92
9187;BME280;7273;48.902;9.410;2023-04-23T06:20:58;97471.47;;;13.49;67.42
9187;BME280;7273;48.902;9.410;2023-04-23T06:23:29;97474.19;;;13.49;66.95
9187;BME280;7273;48.902;9.410;2023-04-23T06:25:54;97472.91;;;13.46;67.13
9187;BME280;7273;48.902;9.410;2023-04-23T06:28:20;97472.47;;;13.53;67.25
9187;BME280;7273;48.902;9.410;2023-04-23T06:30:45;97471.84;;;13.56;67.02
9187;BME280;7273;48.902;9.410;2023-04-23T06:33:11;97466.13;;;13.58;67.07
9187;BME280;7273;48.902;9.410;2023-04-23T06:35:36;97466.50;;;13.65;67.19
9187;BME280;7273;48.902;9.410;2023-04-23T06:38:02;97465.53;;;13.69;66.92
9187;BME280;7273;48.902;9.410;2023-04-23T06:40:27;97463.19;;;13.76;67.10
9187;BME280;7273;48.902;9.410;2023-04-23T06:42:52;97463.06;;;13.81;67.20
9187;BME280;7273;48.902;9.410;2023-04-23T06:45:18;97465.38;;;13.96;67.34
9187;BME280;7273;48.902;9.410;2023-04-23T06:47:44;97461.41;;;14.02;66.95
9187;BME280;7273;48.902;9.410;2023-04-23T06:50:09;97459.03;;;14.09;66.85
9187;BME280;7273;48.902;9.410;2023-04-23T06:52:35;97451.03;;;14.04;67.27
9187;BME280;7273;48.902;9.410;2023-04-23T06:55:00;97452.31;;;14.07;67.53
9187;BME280;7273;48.902;9.410;2023-04-23T06:57:27;97448.31;;;14.13;66.91
9187;BME280;7273;48.902;9.410;2023-04-23T06:59:52;97445.16;;;14.11;66.89
9187;BME280;7273;48.902;9.410;2023-04-23T07:02:17;97443.88;;;14.17;66.75
9187;BME280;7273;48.902;9.410;2023-04-23T07:04:43;97443.75;;;14.22;66.46
9187;BME280;7273;48.902;9.410;2023-04-23T07:07:08;97444.09;;;14.29;66.48
9187;BME280;7273;48.902;9.410;2023-04-23T07:09:34;97437.56;;;14.30;66.57
9187;BME280;7273;48.902;9.410;2023-04-23T07:11:59;97435.78;;;14.34;66.43
9187;BME280;7273;48.902;9.410;2023-04-23T07:14:26;97435.03;;;14.42;65.97
9187;BME280;7273;48.902;9.410;2023-04-23T07:16:51;97434.09;;;14.46;66.38
9187;BME280;7273;48.902;9.410;2023-04-23T07:19:18;97427.84;;;14.54;66.15
9187;BME280;7273;48.902;9.410;2023-04-23T07:21:44;97429.78;;;14.62;66.07
9187;BME280;7273;48.902;9.410;2023-04-23T07:24:09;97431.06;;;14.56;66.86
9187;BME280;7273;48.902;9.410;2023-04-23T07:26:35;97429.13;;;14.57;66.82
9187;BME280;7273;48.902;9.410;2023-04-23T07:29:02;97431.38;;;14.63;66.51
9187;BME280;7273;48.902;9.410;2023-04-23T07:31:28;97431.22;;;14.51;67.28
9187;BME280;7273;48.902;9.410;2023-04-23T07:33:54;97431.69;;;14.53;66.34
9187;BME280;7273;48.902;9.410;2023-04-23T07:36:20;97430.22;;;14.47;66.67
9187;BME280;7273;48.902;9.410;2023-04-23T07:38:46;97432.63;;;14.49;66.41
9187;BME280;7273;48.902;9.410;2023-04-23T07:41:11;97428.78;;;14.41;67.05
9187;BME280;7273;48.902;9.410;2023-04-23T07:43:37;97430.38;;;14.42;66.84
9187;BME280;7273;48.902;9.410;2023-04-23T07:46:03;97429.41;;;14.47;66.48
9187;BME280;7273;48.902;9.410;2023-04-23T07:48:29;97430.06;;;14.35;67.59
9187;BME280;7273;48.902;9.410;2023-04-23T07:50:55;97422.84;;;14.39;67.23
9187;BME280;7273;48.902;9.410;2023-04-23T07:53:21;97427.16;;;14.40;67.17
9187;BME280;7273;48.902;9.410;2023-04-23T07:55:47;97424.28;;;14.45;66.78
9187;BME280;7273;48.902;9.410;2023-04-23T07:58:12;97420.66;;;14.50;66.87
9187;BME280;7273;48.902;9.410;2023-04-23T08:00:37;97428.97;;;14.62;66.89
9187;BME280;7273;48.902;9.410;2023-04-23T08:03:03;97428.03;;;14.75;66.49
9187;BME280;7273;48.902;9.410;2023-04-23T08:05:28;97422.63;;;14.92;66.30
9187;BME280;7273;48.902;9.410;2023-04-23T08:07:54;97427.25;;;15.00;66.01
9187;BME280;7273;48.902;9.410;2023-04-23T08:10:19;97417.97;;;15.10;65.97
9187;BME280;7273;48.902;9.410;2023-04-23T08:12:45;97414.13;;;15.11;65.57
9187;BME280;7273;48.902;9.410;2023-04-23T08:15:10;97411.41;;;15.02;65.87
9187;BME280;7273;48.902;9.410;2023-04-23T08:17:36;97401.47;;;15.06;65.59
9187;BME280;7273;48.902;9.410;2023-04-23T08:20:02;97401.94;;;15.08;65.75
9187;BME280;7273;48.902;9.410;2023-04-23T08:22:28;97407.22;;;15.05;65.78
9187;BME280;7273;48.902;9.410;2023-04-23T08:24:53;97406.59;;;14.99;65.83
9187;BME280;7273;48.902;9.410;2023-04-23T08:27:19;97409.50;;;14.94;65.94
9187;BME280;7273;48.902;9.410;2023-04-23T08:29:44;97409.47;;;14.86;66.25
9187;BME280;7273;48.902;9.410;2023-04-23T08:32:09;97401.31;;;14.86;65.88
9187;BME280;7273;48.902;9.410;2023-04-23T08:34:35;97404.53;;;14.88;65.82
9187;BME280;7273;48.902;9.410;2023-04-23T08:37:01;97397.28;;;14.83;65.85
9187;BME280;7273;48.902;9.410;2023-04-23T08:39:26;97399.38;;;14.77;65.76
9187;BME280;7273;48.902;9.410;2023-04-23T08:41:57;97397.44;;;14.78;65.74
9187;BME280;7273;48.902;9.410;2023-04-23T08:44:26;97397.00;;;14.76;65.63
9187;BME280;7273;48.902;9.410;2023-04-23T08:46:53;97394.91;;;14.73;65.72
9187;BME280;7273;48.902;9.410;2023-04-23T08:49:19;97393.94;;;14.69;65.74
9187;BME280;7273;48.902;9.410;2023-04-23T08:51:51;97394.41;;;14.71;65.50
9187;BME280;7273;48.902;9.410;2023-04-23T08:54:24;97398.41;;;14.73;65.51
9187;BME280;7273;48.902;9.410;2023-04-23T08:56:51;97401.28;;;14.68;65.81
9187;BME280;7273;48.902;9.410;2023-04-23T08:59:20;97399.22;;;14.65;65.64
9187;BME280;7273;48.902;9.410;2023-04-23T09:01:47;97392.34;;;14.68;65.75
9187;BME280;7273;48.902;9.410;2023-04-23T09:04:13;97395.34;;;14.66;65.61
9187;BME280;7273;48.902;9.410;2023-04-23T09:06:44;97396.66;;;14.69;65.72
9187;BME280;7273;48.902;9.410;2023-04-23T09:09:14;97389.31;;;14.69;65.61
9187;BME280;7273;48.902;9.410;2023-04-23T09:11:40;97382.22;;;14.68;65.36
9187;BME280;7273;48.902;9.410;2023-04-23T09:14:06;97376.97;;;14.80;65.41
9187;BME280;7273;48.902;9.410;2023-04-23T09:16:31;97375.69;;;14.87;65.30
9187;BME280;7273;48.902;9.410;2023-04-23T09:18:57;97376.31;;;14.92;65.52
9187;BME280;7273;48.902;9.410;2023-04-23T09:21:23;97382.56;;;15.01;65.31
9187;BME280;7273;48.902;9.410;2023-04-23T09:23:51;97377.09;;;15.01;65.27
9187;BME280;7273;48.902;9.410;2023-04-23T09:26:21;97372.16;;;15.20;65.24
9187;BME280;7273;48.902;9.410;2023-04-23T09:28:49;97371.81;;;15.30;65.20
9187;BME280;7273;48.902;9.410;2023-04-23T09:31:24;97362.97;;;15.50;65.13
9187;BME280;7273;48.902;9.410;2023-04-23T09:33:53;97365.16;;;15.65;65.32
9187;BME280;7273;48.902;9.410;2023-04-23T09:36:22;97356.94;;;15.82;64.97
9187;BME280;7273;48.902;9.410;2023-04-23T09:38:56;97348.84;;;15.94;65.00
9187;BME280;7273;48.902;9.410;2023-04-23T09:41:24;97349.09;;;16.10;64.62
9187;BME280;7273;48.902;9.410;2023-04-23T09:43:56;97348.97;;;16.27;64.59
9187;BME280;7273;48.902;9.410;2023-04-23T09:46:39;97341.84;;;16.43;64.71
9187;BME280;7273;48.902;9.410;2023-04-23T09:49:07;97338.53;;;16.58;64.20
9187;BME280;7273;48.902;9.410;2023-04-23T09:51:40;97338.34;;;16.84;64.13
9187;BME280;7273;48.902;9.410;2023-04-23T09:54:19;97328.13;;;16.93;63.97
9187;BME280;7273;48.902;9.410;2023-04-23T09:56:51;97327.84;;;17.06;63.79
9187;BME280;7273;48.902;9.410;2023-04-23T09:59:24;97326.53;;;17.24;63.60
9187;BME280;7273;48.902;9.410;2023-04-23T10:01:50;97319.50;;;17.35;63.30
9187;BME280;7273;48.902;9.410;2023-04-23T10:04:18;97320.03;;;17.50;63.24
9187;BME280;7273;48.902;9.410;2023-04-23T10:06:45;97318.91;;;17.63;63.00
9187;BME280;7273;48.902;9.410;2023-04-23T10:09:10;97308.44;;;17.77;62.93
9187;BME280;7273;48.902;9.410;2023-04-23T10:11:36;97305.47;;;17.94;62.82
9187;BME280;7273;48.902;9.410;2023-04-23T10:14:02;97303.75;;;18.13;62.78
9187;BME280;7273;48.902;9.410;2023-04-23T10:16:28;97301.03;;;18.13;62.56
9187;BME280;7273;48.902;9.410;2023-04-23T10:18:54;97303.59;;;18.34;62.59
9187;BME280;7273;48.902;9.410;2023-04-23T10:21:25;97300.44;;;18.44;62.55
9187;BME280;7273;48.902;9.410;2023-04-23T10:23:54;97296.72;;;18.64;62.38
9187;BME280;7273;48.902;9.410;2023-04-23T10:26:22;97299.00;;;18.62;62.11
9187;BME280;7273;48.902;9.410;2023-04-23T10:28:49;97295.66;;;18.81;61.82
9187;BME280;7273;48.902;9.410;2023-04-23T10:31:18;97292.75;;;18.89;62.01
9187;BME280;7273;48.902;9.410;2023-04-23T10:33:46;97290.78;;;19.02;61.64
9187;BME280;7273;48.902;9.410;2023-04-23T10:36:12;97290.91;;;18.93;62.14
9187;BME280;7273;48.902;9.410;2023-04-23T10:38:39;97280.94;;;19.01;61.94
9187;BME280;7273;48.902;9.410;2023-04-23T10:41:06;97272.19;;;18.95;61.74
9187;BME280;7273;48.902;9.410;2023-04-23T10:43:32;97271.22;;;19.03;61.42
9187;BME280;7273;48.902;9.410;2023-04-23T10:45:59;97264.78;;;19.11;61.47
9187;BME280;7273;48.902;9.410;2023-04-23T10:48:26;97263.34;;;19.02;61.49
9187;BME280;7273;48.902;9.410;2023-04-23T10:50:58;97261.91;;;18.92;61.10
9187;BME280;7273;48.902;9.410;2023-04-23T10:53:24;97256.75;;;18.75;61.88
9187;BME280;7273;48.902;9.410;2023-04-23T10:56:03;97259.47;;;18.75;61.08
9187;BME280;7273;48.902;9.410;2023-04-23T10:58:47;97251.53;;;18.86;60.24
9187;BME280;7273;48.902;9.410;2023-04-23T11:01:12;97256.28;;;18.73;61.29
9187;BME280;7273;48.902;9.410;2023-04-23T11:03:38;97249.84;;;18.81;61.30
9187;BME280;7273;48.902;9.410;2023-04-23T11:06:06;97242.75;;;19.08;60.98
9187;BME280;7273;48.902;9.410;2023-04-23T11:08:35;97239.78;;;19.28;60.33
9187;BME280;7273;48.902;9.410;2023-04-23T11:11:05;97231.75;;;19.82;59.60
9187;BME280;7273;48.902;9.410;2023-04-23T11:13:31;97224.84;;;19.72;60.40
9187;BME280;7273;48.902;9.410;2023-04-23T11:16:16;97223.72;;;20.08;58.63
9187;BME280;7273;48.902;9.410;2023-04-23T11:21:21;97224.16;;;20.10;59.53
9187;BME280;7273;48.902;9.410;2023-04-23T11:23:46;97226.69;;;20.72;58.98
9187;BME280;7273;48.902;9.410;2023-04-23T11:26:15;97221.97;;;21.11;58.47
9187;BME280;7273;48.902;9.410;2023-04-23T11:28:42;97214.84;;;21.29;58.70
9187;BME280;7273;48.902;9.410;2023-04-23T11:31:08;97213.84;;;21.86;58.03
9187;BME280;7273;48.902;9.410;2023-04-23T11:33:35;97213.00;;;22.37;57.57
9187;BME280;7273;48.902;9.410;2023-04-23T11:36:02;97203.72;;;22.79;57.30
9187;BME280;7273;48.902;9.410;2023-04-23T11:38:31;97206.06;;;22.77;57.76
9187;BME280;7273;48.902;9.410;2023-04-23T11:41:02;97209.50;;;22.67;58.30
9187;BME280;7273;48.902;9.410;2023-04-23T11:43:29;97200.28;;;22.55;58.30
9187;BME280;7273;48.902;9.410;2023-04-23T11:45:54;97207.00;;;22.02;58.91
9187;BME280;7273;48.902;9.410;2023-04-23T11:48:22;97197.75;;;21.88;58.33
9187;BME280;7273;48.902;9.410;2023-04-23T11:50:47;97205.28;;;21.68;57.68
9187;BME280;7273;48.902;9.410;2023-04-23T11:53:13;97198.13;;;21.41;57.73
9187;BME280;7273;48.902;9.410;2023-04-23T11:55:39;97187.88;;;21.15;57.57
9187;BME280;7273;48.902;9.410;2023-04-23T11:58:08;97182.16;;;21.24;57.41
9187;BME280;7273;48.902;9.410;2023-04-23T12:00:34;97180.66;;;21.07;57.33
9187;BME280;7273;48.902;9.410;2023-04-23T12:03:00;97169.59;;;21.04;57.46
9187;BME280;7273;48.902;9.410;2023-04-23T12:08:16;97171.41;;;20.96;54.61
9187;BME280;7273;48.902;9.410;2023-04-23T12:10:53;97157.09;;;21.29;56.51
9187;BME280;7273;48.902;9.410;2023-04-23T12:13:23;97148.63;;;21.18;55.84
9187;BME280;7273;48.902;9.410;2023-04-23T12:15:55;97152.59;;;21.44;56.02
9187;BME280;7273;48.902;9.410;2023-04-23T12:18:34;97154.34;;;21.55;54.67
9187;BME280;7273;48.902;9.410;2023-04-23T12:21:04;97146.19;;;21.85;55.31
9187;BME280;7273;48.902;9.410;2023-04-23T12:23:30;97139.22;;;21.68;55.41
9187;BME280;7273;48.902;9.410;2023-04-23T12:25:55;97134.03;;;21.63;55.62
9187;BME280;7273;48.902;9.410;2023-04-23T12:28:22;97132.47;;;21.40;55.29
9187;BME280;7273;48.902;9.410;2023-04-23T12:30:48;97129.47;;;21.48;55.46
9187;BME280;7273;48.902;9.410;2023-04-23T12:33:14;97129.78;;;21.43;55.88
9187;BME280;7273;48.902;9.410;2023-04-23T12:38:05;97127.81;;;20.76;56.37
9187;BME280;7273;48.902;9.410;2023-04-23T12:40:31;97122.75;;;20.78;56.16
9187;BME280;7273;48.902;9.410;2023-04-23T12:42:57;97117.94;;;20.94;55.29
9187;BME280;7273;48.902;9.410;2023-04-23T12:45:22;97107.38;;;20.96;55.24
9187;BME280;7273;48.902;9.410;2023-04-23T12:47:47;97100.53;;;20.86;55.07
9187;BME280;7273;48.902;9.410;2023-04-23T12:50:13;97098.53;;;20.83;54.96
9187;BME280;7273;48.902;9.410;2023-04-23T12:52:38;97094.19;;;21.05;54.72
9187;BME280;7273;48.902;9.410;2023-04-23T12:55:04;97082.38;;;21.27;54.58
9187;BME280;7273;48.902;9.410;2023-04-23T12:57:30;97079.81;;;21.38;54.28
9187;BME280;7273;48.902;9.410;2023-04-23T12:59:55;97082.81;;;21.29;54.01
9187;BME280;7273;48.902;9.410;2023-04-23T13:02:22;97077.31;;;21.29;53.77
9187;BME280;7273;48.902;9.410;2023-04-23T13:04:47;97074.19;;;21.30;53.95
9187;BME280;7273;48.902;9.410;2023-04-23T13:07:13;97072.28;;;21.34;53.95
9187;BME280;7273;48.902;9.410;2023-04-23T13:09:38;97061.13;;;21.24;54.24
9187;BME280;7273;48.902;9.410;2023-04-23T13:12:04;97058.13;;;21.33;53.89
9187;BME280;7273;48.902;9.410;2023-04-23T13:14:29;97056.25;;;21.40;53.96
9187;BME280;7273;48.902;9.410;2023-04-23T13:16:56;97050.84;;;21.47;53.67
9187;BME280;7273;48.902;9.410;2023-04-23T13:19:22;97048.94;;;21.51;53.65
9187;BME280;7273;48.902;9.410;2023-04-23T13:21:48;97040.38;;;21.30;53.51
9187;BME280;7273;48.902;9.410;2023-04-23T13:24:13;97041.28;;;21.38;53.45
9187;BME280;7273;48.902;9.410;2023-04-23T13:26:39;97035.81;;;21.41;53.13